NKS401 KFLL-SKCL
Flight info
| Callsign | NKS401 |
|---|---|
| Flight time | N/A |
| Altitude | 37000 |
| Route | REGAE2 URSUS UP406 UBSUX UQ101 KIKUM DCT ULQ ULQ4E |
| Aircraft | A320/M-SDE3FGHIRWY/LB1 |
Departure
| Time | N/A |
|---|---|
| Airport | Fort Lauderdale Hollywood International Airport (KFLL) |
Arrival
| Time | 2026-05-03 21:41 |
|---|---|
| Airport | Alfonso Bonilla Aragon International Airport (SKCL) |
| Time | Latitude | Longitude | Altitude | Speed | Heading |
|---|---|---|---|---|---|
| 2026-05-03 21:00 | 18.29169 | -77.90907 | 36987 ft | 456 kts | 171° |
| 2026-05-03 21:00 | 18.16774 | -77.88103 | 37006 ft | 456 kts | 171° |
| 2026-05-03 21:01 | 17.91868 | -77.82493 | 36984 ft | 458 kts | 171° |
| 2026-05-03 21:01 | 17.66888 | -77.76893 | 36998 ft | 459 kts | 171° |
| 2026-05-03 21:02 | 17.41908 | -77.71296 | 37000 ft | 459 kts | 171° |
| 2026-05-03 21:02 | 17.16862 | -77.65693 | 36982 ft | 461 kts | 172° |
| 2026-05-03 21:03 | 16.91710 | -77.60105 | 36993 ft | 462 kts | 171° |
| 2026-05-03 21:03 | 16.66584 | -77.54513 | 36991 ft | 460 kts | 171° |
| 2026-05-03 21:04 | 16.41590 | -77.48990 | 36988 ft | 458 kts | 171° |
| 2026-05-03 21:04 | 16.16627 | -77.43470 | 36961 ft | 460 kts | 171° |
| 2026-05-03 21:05 | 15.91718 | -77.38040 | 36975 ft | 461 kts | 172° |
| 2026-05-03 21:05 | 15.66511 | -77.33079 | 36977 ft | 461 kts | 172° |
| 2026-05-03 21:06 | 15.41332 | -77.28076 | 36976 ft | 459 kts | 172° |
| 2026-05-03 21:06 | 15.16273 | -77.23109 | 36985 ft | 456 kts | 170° |
| 2026-05-03 21:07 | 14.91476 | -77.18195 | 36960 ft | 452 kts | 170° |
| 2026-05-03 21:07 | 14.66759 | -77.13193 | 36948 ft | 454 kts | 172° |
| 2026-05-03 21:08 | 14.41933 | -77.08205 | 36940 ft | 455 kts | 171° |
| 2026-05-03 21:08 | 14.16988 | -77.03206 | 36952 ft | 457 kts | 171° |
| 2026-05-03 21:09 | 13.92036 | -76.98218 | 36947 ft | 456 kts | 171° |
| 2026-05-03 21:09 | 13.67054 | -76.93246 | 36924 ft | 458 kts | 171° |
| 2026-05-03 21:10 | 13.41993 | -76.88247 | 36932 ft | 459 kts | 172° |
| 2026-05-03 21:10 | 13.17048 | -76.83298 | 36925 ft | 460 kts | 171° |
| 2026-05-03 21:11 | 12.91886 | -76.78309 | 36915 ft | 461 kts | 171° |
| 2026-05-03 21:11 | 12.66652 | -76.73536 | 36908 ft | 460 kts | 178° |
| 2026-05-03 21:12 | 12.41123 | -76.71986 | 36938 ft | 458 kts | 178° |
| 2026-05-03 21:12 | 12.15757 | -76.70451 | 36921 ft | 456 kts | 179° |
| 2026-05-03 21:13 | 11.94698 | -76.69163 | 36927 ft | 454 kts | 177° |
| 2026-05-03 21:13 | 11.69480 | -76.67637 | 36894 ft | 454 kts | 176° |
| 2026-05-03 21:14 | 11.44207 | -76.66103 | 36901 ft | 455 kts | 176° |
| 2026-05-03 21:14 | 11.18878 | -76.64561 | 36888 ft | 458 kts | 176° |
| 2026-05-03 21:15 | 10.93341 | -76.63024 | 36890 ft | 460 kts | 176° |
| 2026-05-03 21:15 | 10.67796 | -76.61478 | 36902 ft | 461 kts | 176° |
| 2026-05-03 21:16 | 10.42322 | -76.59940 | 36907 ft | 461 kts | 176° |
| 2026-05-03 21:16 | 10.16753 | -76.58411 | 36892 ft | 461 kts | 176° |
| 2026-05-03 21:17 | 9.91147 | -76.56865 | 36902 ft | 461 kts | 176° |
| 2026-05-03 21:17 | 9.65555 | -76.55334 | 36894 ft | 461 kts | 176° |
| 2026-05-03 21:18 | 9.40009 | -76.53796 | 36909 ft | 458 kts | 177° |
| 2026-05-03 21:18 | 9.14560 | -76.52278 | 36871 ft | 458 kts | 177° |
| 2026-05-03 21:19 | 8.89397 | -76.50851 | 36927 ft | 461 kts | 177° |
| 2026-05-03 21:19 | 8.63638 | -76.49228 | 36905 ft | 462 kts | 177° |
| 2026-05-03 21:20 | 8.38061 | -76.47710 | 36900 ft | 459 kts | 176° |
| 2026-05-03 21:20 | 8.12561 | -76.46184 | 36901 ft | 459 kts | 176° |
| 2026-05-03 21:21 | 7.87016 | -76.44675 | 36874 ft | 460 kts | 176° |
| 2026-05-03 21:21 | 7.61447 | -76.43150 | 36939 ft | 459 kts | 176° |
| 2026-05-03 21:22 | 7.35999 | -76.41644 | 36921 ft | 457 kts | 176° |
| 2026-05-03 21:22 | 7.10567 | -76.40143 | 36941 ft | 458 kts | 176° |
| 2026-05-03 21:23 | 6.85080 | -76.38630 | 36953 ft | 458 kts | 175° |
| 2026-05-03 21:23 | 6.59787 | -76.37142 | 36966 ft | 458 kts | 175° |
| 2026-05-03 21:24 | 6.34335 | -76.35639 | 37001 ft | 458 kts | 175° |
| 2026-05-03 21:24 | 6.08863 | -76.34136 | 36997 ft | 457 kts | 175° |
| 2026-05-03 21:25 | 5.83486 | -76.32638 | 36971 ft | 457 kts | 175° |
| 2026-05-03 21:25 | 5.58094 | -76.31142 | 36978 ft | 457 kts | 175° |
| 2026-05-03 21:26 | 5.32660 | -76.29650 | 36986 ft | 457 kts | 175° |
| 2026-05-03 21:26 | 5.07252 | -76.28138 | 36991 ft | 458 kts | 175° |
| 2026-05-03 21:27 | 4.81714 | -76.26572 | 35913 ft | 461 kts | 175° |
| 2026-05-03 21:27 | 4.72257 | -76.25994 | 33391 ft | 485 kts | 175° |
| 2026-05-03 21:27 | 4.68911 | -76.25792 | 32853 ft | 479 kts | 175° |
| 2026-05-03 21:28 | 4.65595 | -76.25594 | 32293 ft | 476 kts | 175° |
| 2026-05-03 21:28 | 4.62301 | -76.25397 | 31719 ft | 473 kts | 175° |
| 2026-05-03 21:28 | 4.58193 | -76.25148 | 30992 ft | 469 kts | 175° |
| 2026-05-03 21:28 | 4.51694 | -76.24754 | 29804 ft | 464 kts | 175° |
| 2026-05-03 21:29 | 4.45322 | -76.24374 | 28695 ft | 454 kts | 175° |
| 2026-05-03 21:29 | 4.39072 | -76.24020 | 27586 ft | 445 kts | 175° |
| 2026-05-03 21:29 | 4.32958 | -76.23675 | 26556 ft | 435 kts | 175° |
| 2026-05-03 21:29 | 4.26965 | -76.23334 | 25594 ft | 426 kts | 175° |
| 2026-05-03 21:30 | 4.21097 | -76.23007 | 24664 ft | 418 kts | 175° |
| 2026-05-03 21:30 | 4.15323 | -76.22683 | 23730 ft | 413 kts | 174° |
| 2026-05-03 21:30 | 4.09624 | -76.22370 | 22740 ft | 407 kts | 177° |
| 2026-05-03 21:30 | 4.02613 | -76.22985 | 21511 ft | 401 kts | 183° |
| 2026-05-03 21:31 | 3.91646 | -76.24036 | 19490 ft | 392 kts | 183° |
| 2026-05-03 21:31 | 3.82822 | -76.24894 | 17778 ft | 385 kts | 183° |
| 2026-05-03 21:31 | 3.80166 | -76.25154 | 17264 ft | 381 kts | 183° |
| 2026-05-03 21:31 | 3.77542 | -76.25409 | 16766 ft | 377 kts | 183° |
| 2026-05-03 21:32 | 3.74952 | -76.25659 | 16276 ft | 373 kts | 183° |
| 2026-05-03 21:32 | 3.72379 | -76.25907 | 15778 ft | 370 kts | 183° |
| 2026-05-03 21:32 | 3.69827 | -76.26153 | 15284 ft | 367 kts | 183° |
| 2026-05-03 21:32 | 3.67295 | -76.26396 | 14788 ft | 364 kts | 183° |
| 2026-05-03 21:33 | 3.64778 | -76.26665 | 14293 ft | 362 kts | 184° |
| 2026-05-03 21:33 | 3.62291 | -76.26965 | 13803 ft | 359 kts | 185° |
| 2026-05-03 21:33 | 3.59819 | -76.27282 | 13273 ft | 357 kts | 185° |
| 2026-05-03 21:33 | 3.57369 | -76.27605 | 12794 ft | 353 kts | 186° |
| 2026-05-03 21:34 | 3.54948 | -76.27921 | 12318 ft | 349 kts | 186° |
| 2026-05-03 21:34 | 3.52561 | -76.28224 | 11851 ft | 346 kts | 186° |
| 2026-05-03 21:34 | 3.50180 | -76.28522 | 11471 ft | 344 kts | 186° |
| 2026-05-03 21:34 | 3.47837 | -76.28981 | 10975 ft | 342 kts | 192° |
| 2026-05-03 21:35 | 3.45557 | -76.29488 | 10473 ft | 329 kts | 191° |
| 2026-05-03 21:35 | 3.43380 | -76.29971 | 10263 ft | 308 kts | 191° |
| 2026-05-03 21:35 | 3.41363 | -76.30417 | 10146 ft | 287 kts | 192° |
| 2026-05-03 21:35 | 3.39467 | -76.30836 | 9919 ft | 274 kts | 192° |
| 2026-05-03 21:36 | 3.37619 | -76.31246 | 9454 ft | 270 kts | 192° |
| 2026-05-03 21:36 | 3.35876 | -76.31859 | 9050 ft | 263 kts | 212° |
| 2026-05-03 21:36 | 3.34575 | -76.33087 | 8665 ft | 256 kts | 237° |
| 2026-05-03 21:36 | 3.33916 | -76.34706 | 8270 ft | 250 kts | 262° |
| 2026-05-03 21:37 | 3.33968 | -76.36419 | 7805 ft | 245 kts | 285° |
| 2026-05-03 21:37 | 3.34654 | -76.37959 | 7386 ft | 241 kts | 300° |
| 2026-05-03 21:37 | 3.35493 | -76.39393 | 6989 ft | 237 kts | 304° |
| 2026-05-03 21:37 | 3.36668 | -76.40505 | 6594 ft | 233 kts | 332° |
| 2026-05-03 21:38 | 3.38206 | -76.40906 | 6238 ft | 228 kts | 0° |
| 2026-05-03 21:38 | 3.39765 | -76.40725 | 5802 ft | 223 kts | 9° |
| 2026-05-03 21:38 | 3.41237 | -76.40449 | 5461 ft | 208 kts | 9° |
| 2026-05-03 21:38 | 3.42637 | -76.40198 | 5195 ft | 201 kts | 10° |
| 2026-05-03 21:39 | 3.43993 | -76.39961 | 4960 ft | 193 kts | 9° |
| 2026-05-03 21:39 | 3.45272 | -76.39738 | 4699 ft | 181 kts | 9° |
| 2026-05-03 21:39 | 3.46476 | -76.39530 | 4466 ft | 170 kts | 9° |
| 2026-05-03 21:39 | 3.47585 | -76.39337 | 4272 ft | 157 kts | 8° |
| 2026-05-03 21:40 | 3.48638 | -76.39155 | 4062 ft | 151 kts | 9° |
| 2026-05-03 21:40 | 3.49656 | -76.38971 | 3874 ft | 147 kts | 10° |
| 2026-05-03 21:40 | 3.50661 | -76.38795 | 3674 ft | 146 kts | 9° |
| 2026-05-03 21:40 | 3.51662 | -76.38626 | 3476 ft | 146 kts | 8° |
| 2026-05-03 21:41 | 3.52656 | -76.38449 | 3276 ft | 143 kts | 7° |
| 2026-05-03 21:41 | 3.53615 | -76.38288 | 3164 ft | 128 kts | 9° |
| 2026-05-03 21:41 | 3.54335 | -76.38166 | 3165 ft | 80 kts | 9° |
| 2026-05-03 21:41 | 3.54717 | -76.38101 | 3164 ft | 31 kts | 9° |
| 2026-05-03 21:42 | 3.54906 | -76.38067 | 3165 ft | 37 kts | 9° |
| 2026-05-03 21:42 | 3.55090 | -76.38064 | 3168 ft | 12 kts | 302° |
| 2026-05-03 21:42 | 3.55109 | -76.38147 | 3168 ft | 14 kts | 278° |
| 2026-05-03 21:42 | 3.55038 | -76.38209 | 3169 ft | 21 kts | 187° |
| 2026-05-03 21:43 | 3.54882 | -76.38234 | 3167 ft | 24 kts | 190° |
| 2026-05-03 21:43 | 3.54710 | -76.38265 | 3168 ft | 26 kts | 188° |
| 2026-05-03 21:43 | 3.54524 | -76.38297 | 3166 ft | 28 kts | 190° |
| 2026-05-03 21:43 | 3.54326 | -76.38331 | 3165 ft | 26 kts | 189° |
| 2026-05-03 21:44 | 3.54160 | -76.38359 | 3164 ft | 24 kts | 189° |
| 2026-05-03 21:44 | 3.54052 | -76.38408 | 3164 ft | 18 kts | 220° |
| 2026-05-03 21:44 | 3.53951 | -76.38493 | 3163 ft | 20 kts | 220° |
| 2026-05-03 21:44 | 3.53864 | -76.38565 | 3162 ft | 11 kts | 220° |
| 2026-05-03 21:45 | 3.53788 | -76.38581 | 3162 ft | 12 kts | 158° |
| 2026-05-03 21:45 | 3.53716 | -76.38529 | 3162 ft | 11 kts | 142° |
| 2026-05-03 21:45 | 3.53642 | -76.38519 | 3162 ft | 12 kts | 190° |
| 2026-05-03 21:45 | 3.53558 | -76.38536 | 3162 ft | 13 kts | 191° |
| 2026-05-03 21:46 | 3.53508 | -76.38558 | 3162 ft | 6 kts | 240° |
| 2026-05-03 21:46 | 3.53507 | -76.38603 | 3162 ft | 7 kts | 279° |
| 2026-05-03 21:46 | 3.53511 | -76.38623 | 3162 ft | 1 kts | 281° |
| 2026-05-03 21:46 | 3.53512 | -76.38627 | 3162 ft | 0 kts | 280° |